sensor_id;sensor_type;location;lat;lon;timestamp;P1;durP1;ratioP1;P2;durP2;ratioP2
36839;SDS011;24406;51.640;9.566;2023-04-15T00:04:52;6.55;;;5.85;;
36839;SDS011;24406;51.640;9.566;2023-04-15T00:09:54;6.53;;;5.88;;
36839;SDS011;24406;51.640;9.566;2023-04-15T00:14:58;7.65;;;5.78;;
36839;SDS011;24406;51.640;9.566;2023-04-15T00:19:59;6.28;;;5.47;;
36839;SDS011;24406;51.640;9.566;2023-04-15T00:25:01;7.40;;;6.68;;
36839;SDS011;24406;51.640;9.566;2023-04-15T00:30:04;6.70;;;6.00;;
36839;SDS011;24406;51.640;9.566;2023-04-15T00:35:07;8.32;;;6.43;;
36839;SDS011;24406;51.640;9.566;2023-04-15T00:40:10;8.02;;;7.15;;
36839;SDS011;24406;51.640;9.566;2023-04-15T00:45:14;8.18;;;6.63;;
36839;SDS011;24406;51.640;9.566;2023-04-15T00:50:16;6.95;;;6.25;;
36839;SDS011;24406;51.640;9.566;2023-04-15T00:55:17;7.88;;;6.05;;
36839;SDS011;24406;51.640;9.566;2023-04-15T01:00:20;6.63;;;5.95;;
36839;SDS011;24406;51.640;9.566;2023-04-15T01:05:22;8.55;;;6.63;;
36839;SDS011;24406;51.640;9.566;2023-04-15T01:10:24;7.72;;;6.20;;
36839;SDS011;24406;51.640;9.566;2023-04-15T01:15:28;6.80;;;6.10;;
36839;SDS011;24406;51.640;9.566;2023-04-15T01:20:31;6.85;;;6.00;;
36839;SDS011;24406;51.640;9.566;2023-04-15T01:25:35;5.85;;;5.35;;
36839;SDS011;24406;51.640;9.566;2023-04-15T01:30:37;7.50;;;6.80;;
36839;SDS011;24406;51.640;9.566;2023-04-15T01:35:39;7.10;;;6.30;;
36839;SDS011;24406;51.640;9.566;2023-04-15T01:40:44;7.47;;;5.68;;
36839;SDS011;24406;51.640;9.566;2023-04-15T01:45:46;6.00;;;5.40;;
36839;SDS011;24406;51.640;9.566;2023-04-15T01:50:47;9.32;;;5.45;;
36839;SDS011;24406;51.640;9.566;2023-04-15T01:55:50;6.25;;;5.35;;
36839;SDS011;24406;51.640;9.566;2023-04-15T02:00:52;6.90;;;5.20;;
36839;SDS011;24406;51.640;9.566;2023-04-15T02:05:54;5.63;;;5.05;;
36839;SDS011;24406;51.640;9.566;2023-04-15T02:10:57;6.60;;;5.28;;
36839;SDS011;24406;51.640;9.566;2023-04-15T02:16:00;5.47;;;4.93;;
36839;SDS011;24406;51.640;9.566;2023-04-15T02:21:01;6.53;;;5.93;;
36839;SDS011;24406;51.640;9.566;2023-04-15T02:26:06;7.38;;;6.05;;
36839;SDS011;24406;51.640;9.566;2023-04-15T02:31:08;5.85;;;5.35;;
36839;SDS011;24406;51.640;9.566;2023-04-15T02:36:09;8.65;;;6.53;;
36839;SDS011;24406;51.640;9.566;2023-04-15T02:41:13;7.35;;;6.57;;
36839;SDS011;24406;51.640;9.566;2023-04-15T02:46:15;6.38;;;5.78;;
36839;SDS011;24406;51.640;9.566;2023-04-15T02:51:17;8.77;;;7.40;;
36839;SDS011;24406;51.640;9.566;2023-04-15T02:56:21;9.10;;;8.20;;
36839;SDS011;24406;51.640;9.566;2023-04-15T03:01:22;7.80;;;6.97;;
36839;SDS011;24406;51.640;9.566;2023-04-15T03:06:25;10.77;;;8.60;;
36839;SDS011;24406;51.640;9.566;2023-04-15T03:11:28;10.48;;;8.93;;
36839;SDS011;24406;51.640;9.566;2023-04-15T03:16:31;6.97;;;6.20;;
36839;SDS011;24406;51.640;9.566;2023-04-15T03:21:32;8.13;;;5.80;;
36839;SDS011;24406;51.640;9.566;2023-04-15T03:26:35;6.35;;;5.75;;
36839;SDS011;24406;51.640;9.566;2023-04-15T03:31:43;6.25;;;5.63;;
36839;SDS011;24406;51.640;9.566;2023-04-15T03:36:45;6.85;;;6.15;;
36839;SDS011;24406;51.640;9.566;2023-04-15T03:41:48;8.93;;;6.35;;
36839;SDS011;24406;51.640;9.566;2023-04-15T03:46:49;7.30;;;6.60;;
36839;SDS011;24406;51.640;9.566;2023-04-15T03:51:51;8.80;;;6.93;;
36839;SDS011;24406;51.640;9.566;2023-04-15T03:56:53;9.25;;;7.45;;
36839;SDS011;24406;51.640;9.566;2023-04-15T04:01:55;8.15;;;7.30;;
36839;SDS011;24406;51.640;9.566;2023-04-15T04:06:57;8.20;;;7.40;;
36839;SDS011;24406;51.640;9.566;2023-04-15T04:12:00;10.02;;;7.75;;
36839;SDS011;24406;51.640;9.566;2023-04-15T04:17:01;10.02;;;8.75;;
36839;SDS011;24406;51.640;9.566;2023-04-15T04:22:03;9.45;;;8.52;;
36839;SDS011;24406;51.640;9.566;2023-04-15T04:27:06;10.73;;;9.48;;
36839;SDS011;24406;51.640;9.566;2023-04-15T04:32:07;12.50;;;10.65;;
36839;SDS011;24406;51.640;9.566;2023-04-15T04:37:09;12.27;;;9.73;;
36839;SDS011;24406;51.640;9.566;2023-04-15T04:42:11;12.23;;;10.38;;
36839;SDS011;24406;51.640;9.566;2023-04-15T04:47:13;17.95;;;13.18;;
36839;SDS011;24406;51.640;9.566;2023-04-15T04:52:15;16.20;;;13.57;;
36839;SDS011;24406;51.640;9.566;2023-04-15T04:57:17;17.80;;;15.05;;
36839;SDS011;24406;51.640;9.566;2023-04-15T05:02:19;19.73;;;15.77;;
36839;SDS011;24406;51.640;9.566;2023-04-15T05:07:20;18.75;;;15.35;;
36839;SDS011;24406;51.640;9.566;2023-04-15T05:12:23;17.63;;;15.57;;
36839;SDS011;24406;51.640;9.566;2023-04-15T05:17:25;18.52;;;15.70;;
36839;SDS011;24406;51.640;9.566;2023-04-15T05:22:26;20.40;;;16.10;;
36839;SDS011;24406;51.640;9.566;2023-04-15T05:27:29;20.98;;;17.27;;
36839;SDS011;24406;51.640;9.566;2023-04-15T05:32:31;21.20;;;16.23;;
36839;SDS011;24406;51.640;9.566;2023-04-15T05:37:32;19.85;;;16.40;;
36839;SDS011;24406;51.640;9.566;2023-04-15T05:42:35;21.20;;;16.50;;
36839;SDS011;24406;51.640;9.566;2023-04-15T05:47:37;20.55;;;16.83;;
36839;SDS011;24406;51.640;9.566;2023-04-15T05:52:38;20.35;;;16.27;;
36839;SDS011;24406;51.640;9.566;2023-04-15T05:57:41;18.83;;;15.15;;
36839;SDS011;24406;51.640;9.566;2023-04-15T06:02:42;20.10;;;16.05;;
36839;SDS011;24406;51.640;9.566;2023-04-15T06:07:44;20.50;;;15.27;;
36839;SDS011;24406;51.640;9.566;2023-04-15T06:12:47;21.65;;;17.50;;
36839;SDS011;24406;51.640;9.566;2023-04-15T06:17:48;18.65;;;15.13;;
36839;SDS011;24406;51.640;9.566;2023-04-15T06:22:50;21.27;;;17.10;;
36839;SDS011;24406;51.640;9.566;2023-04-15T06:27:53;21.98;;;17.30;;
36839;SDS011;24406;51.640;9.566;2023-04-15T06:32:55;21.90;;;18.10;;
36839;SDS011;24406;51.640;9.566;2023-04-15T06:37:56;20.95;;;16.33;;
36839;SDS011;24406;51.640;9.566;2023-04-15T06:42:59;23.67;;;18.80;;
36839;SDS011;24406;51.640;9.566;2023-04-15T06:48:00;22.00;;;18.13;;
36839;SDS011;24406;51.640;9.566;2023-04-15T06:53:02;24.50;;;18.90;;
36839;SDS011;24406;51.640;9.566;2023-04-15T06:58:05;22.63;;;18.42;;
36839;SDS011;24406;51.640;9.566;2023-04-15T07:03:06;25.50;;;19.98;;
36839;SDS011;24406;51.640;9.566;2023-04-15T07:08:10;22.35;;;17.52;;
36839;SDS011;24406;51.640;9.566;2023-04-15T07:13:12;22.52;;;18.65;;
36839;SDS011;24406;51.640;9.566;2023-04-15T07:18:14;23.55;;;19.50;;
36839;SDS011;24406;51.640;9.566;2023-04-15T07:23:15;22.05;;;17.35;;
36839;SDS011;24406;51.640;9.566;2023-04-15T07:28:18;20.83;;;17.05;;
36839;SDS011;24406;51.640;9.566;2023-04-15T07:33:20;18.67;;;15.43;;
36839;SDS011;24406;51.640;9.566;2023-04-15T07:38:21;22.40;;;17.10;;
36839;SDS011;24406;51.640;9.566;2023-04-15T07:43:25;17.63;;;14.65;;
36839;SDS011;24406;51.640;9.566;2023-04-15T07:48:27;15.45;;;12.50;;
36839;SDS011;24406;51.640;9.566;2023-04-15T07:53:28;14.95;;;12.20;;
36839;SDS011;24406;51.640;9.566;2023-04-15T07:58:31;14.38;;;12.13;;
36839;SDS011;24406;51.640;9.566;2023-04-15T08:03:33;12.68;;;10.70;;
36839;SDS011;24406;51.640;9.566;2023-04-15T08:08:34;12.63;;;10.93;;
36839;SDS011;24406;51.640;9.566;2023-04-15T08:13:37;12.95;;;11.05;;
36839;SDS011;24406;51.640;9.566;2023-04-15T08:18:39;11.40;;;9.70;;
36839;SDS011;24406;51.640;9.566;2023-04-15T08:23:41;10.13;;;8.98;;
36839;SDS011;24406;51.640;9.566;2023-04-15T08:28:44;12.02;;;10.73;;
36839;SDS011;24406;51.640;9.566;2023-04-15T08:33:46;9.60;;;8.05;;
36839;SDS011;24406;51.640;9.566;2023-04-15T08:38:48;10.40;;;9.25;;
36839;SDS011;24406;51.640;9.566;2023-04-15T08:43:55;10.88;;;9.68;;
36839;SDS011;24406;51.640;9.566;2023-04-15T08:48:58;15.00;;;10.88;;
36839;SDS011;24406;51.640;9.566;2023-04-15T08:53:59;12.20;;;9.68;;
36839;SDS011;24406;51.640;9.566;2023-04-15T08:59:03;9.07;;;8.18;;
36839;SDS011;24406;51.640;9.566;2023-04-15T09:04:05;8.48;;;7.60;;
36839;SDS011;24406;51.640;9.566;2023-04-15T09:09:07;7.78;;;6.38;;
36839;SDS011;24406;51.640;9.566;2023-04-15T09:14:10;7.78;;;6.97;;
36839;SDS011;24406;51.640;9.566;2023-04-15T09:19:19;8.75;;;7.85;;
36839;SDS011;24406;51.640;9.566;2023-04-15T09:24:21;7.07;;;6.38;;
36839;SDS011;24406;51.640;9.566;2023-04-15T09:29:24;6.30;;;5.70;;
36839;SDS011;24406;51.640;9.566;2023-04-15T09:34:34;6.25;;;5.65;;
36839;SDS011;24406;51.640;9.566;2023-04-15T09:44:56;7.53;;;6.72;;
36839;SDS011;24406;51.640;9.566;2023-04-15T09:50:08;6.82;;;5.43;;
36839;SDS011;24406;51.640;9.566;2023-04-15T09:55:10;6.47;;;5.88;;
36839;SDS011;24406;51.640;9.566;2023-04-15T10:00:14;8.68;;;7.72;;
36839;SDS011;24406;51.640;9.566;2023-04-15T10:05:16;6.43;;;5.82;;
36839;SDS011;24406;51.640;9.566;2023-04-15T10:10:18;5.85;;;5.35;;
36839;SDS011;24406;51.640;9.566;2023-04-15T10:15:21;7.22;;;6.63;;
36839;SDS011;24406;51.640;9.566;2023-04-15T10:20:23;8.25;;;7.55;;
36839;SDS011;24406;51.640;9.566;2023-04-15T10:25:25;8.48;;;7.78;;
36839;SDS011;24406;51.640;9.566;2023-04-15T10:30:29;8.73;;;7.93;;
36839;SDS011;24406;51.640;9.566;2023-04-15T10:35:31;9.00;;;8.15;;
36839;SDS011;24406;51.640;9.566;2023-04-15T10:40:34;8.25;;;7.55;;
36839;SDS011;24406;51.640;9.566;2023-04-15T10:45:36;7.57;;;6.88;;
36839;SDS011;24406;51.640;9.566;2023-04-15T10:50:38;6.50;;;5.90;;
36839;SDS011;24406;51.640;9.566;2023-04-15T10:55:40;7.65;;;6.60;;
36839;SDS011;24406;51.640;9.566;2023-04-15T11:00:43;8.27;;;7.57;;
36839;SDS011;24406;51.640;9.566;2023-04-15T11:05:51;6.90;;;6.30;;
36839;SDS011;24406;51.640;9.566;2023-04-15T11:10:54;7.15;;;6.45;;
36839;SDS011;24406;51.640;9.566;2023-04-15T11:15:58;7.68;;;6.97;;
36839;SDS011;24406;51.640;9.566;2023-04-15T11:21:02;6.43;;;5.93;;
36839;SDS011;24406;51.640;9.566;2023-04-15T11:26:06;7.35;;;6.72;;
36839;SDS011;24406;51.640;9.566;2023-04-15T11:31:12;7.00;;;6.43;;
36839;SDS011;24406;51.640;9.566;2023-04-15T11:36:15;7.68;;;7.07;;
36839;SDS011;24406;51.640;9.566;2023-04-15T11:41:19;7.22;;;6.63;;
36839;SDS011;24406;51.640;9.566;2023-04-15T11:46:27;7.10;;;6.40;;
36839;SDS011;24406;51.640;9.566;2023-04-15T11:51:31;8.48;;;7.38;;
36839;SDS011;24406;51.640;9.566;2023-04-15T11:56:33;7.63;;;6.80;;
36839;SDS011;24406;51.640;9.566;2023-04-15T12:01:36;6.90;;;5.93;;
36839;SDS011;24406;51.640;9.566;2023-04-15T12:06:38;11.73;;;9.40;;
36839;SDS011;24406;51.640;9.566;2023-04-15T12:11:41;12.88;;;9.68;;
36839;SDS011;24406;51.640;9.566;2023-04-15T12:16:45;15.65;;;11.85;;
36839;SDS011;24406;51.640;9.566;2023-04-15T12:21:48;9.52;;;7.70;;
36839;SDS011;24406;51.640;9.566;2023-04-15T12:26:50;12.10;;;10.45;;
36839;SDS011;24406;51.640;9.566;2023-04-15T12:31:54;7.00;;;5.80;;
36839;SDS011;24406;51.640;9.566;2023-04-15T12:36:56;8.00;;;7.20;;
36839;SDS011;24406;51.640;9.566;2023-04-15T12:41:59;7.43;;;6.63;;
36839;SDS011;24406;51.640;9.566;2023-04-15T12:47:02;9.30;;;8.40;;
36839;SDS011;24406;51.640;9.566;2023-04-15T12:52:03;10.60;;;9.60;;
36839;SDS011;24406;51.640;9.566;2023-04-15T12:57:05;11.15;;;10.05;;
36839;SDS011;24406;51.640;9.566;2023-04-15T13:02:08;11.68;;;10.43;;
36839;SDS011;24406;51.640;9.566;2023-04-15T13:07:10;11.50;;;10.30;;
36839;SDS011;24406;51.640;9.566;2023-04-15T13:12:12;12.43;;;10.63;;
36839;SDS011;24406;51.640;9.566;2023-04-15T13:17:16;16.25;;;12.82;;
36839;SDS011;24406;51.640;9.566;2023-04-15T13:22:19;12.20;;;11.00;;
36839;SDS011;24406;51.640;9.566;2023-04-15T13:27:20;23.25;;;19.08;;
36839;SDS011;24406;51.640;9.566;2023-04-15T13:32:23;13.20;;;11.82;;
36839;SDS011;24406;51.640;9.566;2023-04-15T13:37:25;14.35;;;12.40;;
36839;SDS011;24406;51.640;9.566;2023-04-15T13:42:27;12.60;;;11.30;;
36839;SDS011;24406;51.640;9.566;2023-04-15T13:47:29;14.20;;;11.95;;
36839;SDS011;24406;51.640;9.566;2023-04-15T13:52:31;11.23;;;9.75;;
36839;SDS011;24406;51.640;9.566;2023-04-15T13:57:33;13.07;;;11.60;;
36839;SDS011;24406;51.640;9.566;2023-04-15T14:02:35;16.30;;;11.75;;
36839;SDS011;24406;51.640;9.566;2023-04-15T14:07:37;18.77;;;15.63;;
36839;SDS011;24406;51.640;9.566;2023-04-15T14:12:38;16.95;;;12.93;;
36839;SDS011;24406;51.640;9.566;2023-04-15T14:17:42;15.70;;;12.88;;
36839;SDS011;24406;51.640;9.566;2023-04-15T14:22:43;16.90;;;13.48;;
36839;SDS011;24406;51.640;9.566;2023-04-15T14:27:45;11.95;;;10.70;;
36839;SDS011;24406;51.640;9.566;2023-04-15T14:32:48;15.82;;;13.18;;
36839;SDS011;24406;51.640;9.566;2023-04-15T14:37:50;14.63;;;10.98;;
36839;SDS011;24406;51.640;9.566;2023-04-15T14:42:51;12.80;;;10.00;;
36839;SDS011;24406;51.640;9.566;2023-04-15T14:47:54;11.32;;;9.20;;
36839;SDS011;24406;51.640;9.566;2023-04-15T14:52:56;25.05;;;15.77;;
36839;SDS011;24406;51.640;9.566;2023-04-15T14:57:57;10.40;;;8.75;;
36839;SDS011;24406;51.640;9.566;2023-04-15T15:03:00;29.40;;;17.17;;
36839;SDS011;24406;51.640;9.566;2023-04-15T15:08:02;21.58;;;14.73;;
36839;SDS011;24406;51.640;9.566;2023-04-15T15:13:04;11.25;;;9.05;;
36839;SDS011;24406;51.640;9.566;2023-04-15T15:18:07;21.83;;;11.80;;
36839;SDS011;24406;51.640;9.566;2023-04-15T15:23:09;15.20;;;10.40;;
36839;SDS011;24406;51.640;9.566;2023-04-15T15:28:10;10.60;;;8.63;;
36839;SDS011;24406;51.640;9.566;2023-04-15T15:33:13;11.95;;;9.50;;
36839;SDS011;24406;51.640;9.566;2023-04-15T15:38:15;12.13;;;9.52;;
36839;SDS011;24406;51.640;9.566;2023-04-15T15:43:16;11.55;;;9.63;;
36839;SDS011;24406;51.640;9.566;2023-04-15T15:48:19;14.75;;;10.48;;
36839;SDS011;24406;51.640;9.566;2023-04-15T15:53:21;12.93;;;11.48;;
36839;SDS011;24406;51.640;9.566;2023-04-15T15:58:24;15.00;;;11.43;;
36839;SDS011;24406;51.640;9.566;2023-04-15T16:03:27;17.13;;;13.70;;
36839;SDS011;24406;51.640;9.566;2023-04-15T16:08:29;22.33;;;16.20;;
36839;SDS011;24406;51.640;9.566;2023-04-15T16:13:31;22.13;;;16.17;;
36839;SDS011;24406;51.640;9.566;2023-04-15T16:18:33;24.48;;;17.20;;
36839;SDS011;24406;51.640;9.566;2023-04-15T16:23:35;27.17;;;18.88;;
36839;SDS011;24406;51.640;9.566;2023-04-15T16:28:37;31.40;;;20.98;;
36839;SDS011;24406;51.640;9.566;2023-04-15T16:33:40;33.08;;;23.30;;
36839;SDS011;24406;51.640;9.566;2023-04-15T16:38:42;35.90;;;24.92;;
36839;SDS011;24406;51.640;9.566;2023-04-15T16:43:47;35.80;;;23.65;;
36839;SDS011;24406;51.640;9.566;2023-04-15T16:48:50;35.58;;;25.20;;
36839;SDS011;24406;51.640;9.566;2023-04-15T16:53:51;37.67;;;28.27;;
36839;SDS011;24406;51.640;9.566;2023-04-15T16:58:53;37.72;;;27.98;;
36839;SDS011;24406;51.640;9.566;2023-04-15T17:03:56;36.53;;;28.45;;
36839;SDS011;24406;51.640;9.566;2023-04-15T17:08:57;39.88;;;29.98;;
36839;SDS011;24406;51.640;9.566;2023-04-15T17:13:58;41.65;;;31.20;;
36839;SDS011;24406;51.640;9.566;2023-04-15T17:19:01;42.10;;;31.77;;
36839;SDS011;24406;51.640;9.566;2023-04-15T17:24:03;41.70;;;30.40;;
36839;SDS011;24406;51.640;9.566;2023-04-15T17:29:05;42.97;;;31.67;;
36839;SDS011;24406;51.640;9.566;2023-04-15T17:34:08;44.83;;;33.08;;
36839;SDS011;24406;51.640;9.566;2023-04-15T17:39:10;35.60;;;29.63;;
36839;SDS011;24406;51.640;9.566;2023-04-15T17:44:13;39.80;;;29.05;;
36839;SDS011;24406;51.640;9.566;2023-04-15T17:49:16;42.58;;;30.65;;
36839;SDS011;24406;51.640;9.566;2023-04-15T17:54:17;38.75;;;28.65;;
36839;SDS011;24406;51.640;9.566;2023-04-15T17:59:18;38.78;;;27.98;;
36839;SDS011;24406;51.640;9.566;2023-04-15T18:04:22;35.63;;;27.10;;
36839;SDS011;24406;51.640;9.566;2023-04-15T18:09:23;38.30;;;26.85;;
36839;SDS011;24406;51.640;9.566;2023-04-15T18:14:25;40.17;;;29.02;;
36839;SDS011;24406;51.640;9.566;2023-04-15T18:19:27;38.75;;;29.70;;
36839;SDS011;24406;51.640;9.566;2023-04-15T18:24:29;41.28;;;29.30;;
36839;SDS011;24406;51.640;9.566;2023-04-15T18:29:31;38.90;;;29.08;;
36839;SDS011;24406;51.640;9.566;2023-04-15T18:34:33;39.83;;;29.83;;
36839;SDS011;24406;51.640;9.566;2023-04-15T18:39:35;40.78;;;31.05;;
36839;SDS011;24406;51.640;9.566;2023-04-15T18:44:37;41.55;;;31.63;;
36839;SDS011;24406;51.640;9.566;2023-04-15T18:49:40;43.42;;;31.98;;
36839;SDS011;24406;51.640;9.566;2023-04-15T18:54:42;45.20;;;33.50;;
36839;SDS011;24406;51.640;9.566;2023-04-15T18:59:43;50.55;;;34.67;;
36839;SDS011;24406;51.640;9.566;2023-04-15T19:04:46;48.45;;;34.60;;
36839;SDS011;24406;51.640;9.566;2023-04-15T19:09:47;45.03;;;34.17;;
36839;SDS011;24406;51.640;9.566;2023-04-15T19:14:49;48.35;;;35.38;;
36839;SDS011;24406;51.640;9.566;2023-04-15T19:19:52;51.88;;;37.15;;
36839;SDS011;24406;51.640;9.566;2023-04-15T19:24:53;56.85;;;40.13;;
36839;SDS011;24406;51.640;9.566;2023-04-15T19:29:55;51.15;;;38.50;;
36839;SDS011;24406;51.640;9.566;2023-04-15T19:34:58;54.22;;;39.85;;
36839;SDS011;24406;51.640;9.566;2023-04-15T19:39:59;57.42;;;41.58;;
36839;SDS011;24406;51.640;9.566;2023-04-15T19:45:01;54.03;;;37.40;;
36839;SDS011;24406;51.640;9.566;2023-04-15T19:50:04;49.83;;;36.13;;
36839;SDS011;24406;51.640;9.566;2023-04-15T19:55:07;51.45;;;37.47;;
36839;SDS011;24406;51.640;9.566;2023-04-15T20:00:09;49.95;;;36.15;;
36839;SDS011;24406;51.640;9.566;2023-04-15T20:05:12;42.85;;;33.13;;
36839;SDS011;24406;51.640;9.566;2023-04-15T20:10:14;47.42;;;33.53;;
36839;SDS011;24406;51.640;9.566;2023-04-15T20:15:15;45.45;;;33.88;;
36839;SDS011;24406;51.640;9.566;2023-04-15T20:20:18;47.83;;;33.80;;
36839;SDS011;24406;51.640;9.566;2023-04-15T20:25:20;46.70;;;35.35;;
36839;SDS011;24406;51.640;9.566;2023-04-15T20:30:21;43.95;;;34.05;;
36839;SDS011;24406;51.640;9.566;2023-04-15T20:35:24;47.97;;;34.92;;
36839;SDS011;24406;51.640;9.566;2023-04-15T20:40:30;51.33;;;37.55;;
36839;SDS011;24406;51.640;9.566;2023-04-15T20:45:32;52.70;;;40.33;;
36839;SDS011;24406;51.640;9.566;2023-04-15T20:50:35;56.50;;;42.28;;
36839;SDS011;24406;51.640;9.566;2023-04-15T20:55:36;55.25;;;40.47;;
36839;SDS011;24406;51.640;9.566;2023-04-15T21:00:38;63.10;;;43.03;;
36839;SDS011;24406;51.640;9.566;2023-04-15T21:05:41;59.28;;;40.97;;
36839;SDS011;24406;51.640;9.566;2023-04-15T21:10:43;58.53;;;43.80;;
36839;SDS011;24406;51.640;9.566;2023-04-15T21:15:45;56.25;;;43.05;;
36839;SDS011;24406;51.640;9.566;2023-04-15T21:20:55;57.72;;;42.72;;
36839;SDS011;24406;51.640;9.566;2023-04-15T21:25:58;54.97;;;41.72;;
36839;SDS011;24406;51.640;9.566;2023-04-15T21:31:00;51.08;;;40.17;;
36839;SDS011;24406;51.640;9.566;2023-04-15T21:36:04;55.83;;;41.58;;
36839;SDS011;24406;51.640;9.566;2023-04-15T21:41:06;57.65;;;42.45;;
36839;SDS011;24406;51.640;9.566;2023-04-15T21:46:09;54.20;;;41.42;;
36839;SDS011;24406;51.640;9.566;2023-04-15T21:51:12;55.00;;;41.50;;
36839;SDS011;24406;51.640;9.566;2023-04-15T21:56:13;59.13;;;41.92;;
36839;SDS011;24406;51.640;9.566;2023-04-15T22:01:15;59.92;;;43.15;;
36839;SDS011;24406;51.640;9.566;2023-04-15T22:06:18;59.45;;;41.92;;
36839;SDS011;24406;51.640;9.566;2023-04-15T22:11:20;55.67;;;40.97;;
36839;SDS011;24406;51.640;9.566;2023-04-15T22:16:25;55.22;;;41.45;;
36839;SDS011;24406;51.640;9.566;2023-04-15T22:21:29;52.65;;;38.85;;
36839;SDS011;24406;51.640;9.566;2023-04-15T22:26:32;52.35;;;38.78;;
36839;SDS011;24406;51.640;9.566;2023-04-15T22:31:33;53.42;;;39.90;;
36839;SDS011;24406;51.640;9.566;2023-04-15T22:36:36;44.58;;;36.28;;
36839;SDS011;24406;51.640;9.566;2023-04-15T22:41:38;49.30;;;37.70;;
36839;SDS011;24406;51.640;9.566;2023-04-15T22:46:39;54.75;;;41.22;;
36839;SDS011;24406;51.640;9.566;2023-04-15T22:51:44;51.58;;;39.90;;
36839;SDS011;24406;51.640;9.566;2023-04-15T22:56:45;53.60;;;42.10;;
36839;SDS011;24406;51.640;9.566;2023-04-15T23:01:47;49.42;;;38.90;;
36839;SDS011;24406;51.640;9.566;2023-04-15T23:06:49;53.78;;;39.58;;
36839;SDS011;24406;51.640;9.566;2023-04-15T23:11:51;48.88;;;37.45;;
36839;SDS011;24406;51.640;9.566;2023-04-15T23:16:53;50.10;;;38.28;;
36839;SDS011;24406;51.640;9.566;2023-04-15T23:21:57;49.97;;;39.70;;
36839;SDS011;24406;51.640;9.566;2023-04-15T23:26:59;47.63;;;37.78;;
36839;SDS011;24406;51.640;9.566;2023-04-15T23:32:01;47.63;;;38.10;;
36839;SDS011;24406;51.640;9.566;2023-04-15T23:37:04;52.63;;;39.70;;
36839;SDS011;24406;51.640;9.566;2023-04-15T23:42:05;47.83;;;38.75;;
36839;SDS011;24406;51.640;9.566;2023-04-15T23:47:07;50.22;;;40.50;;
36839;SDS011;24406;51.640;9.566;2023-04-15T23:52:09;45.45;;;37.65;;
36839;SDS011;24406;51.640;9.566;2023-04-15T23:57:11;47.67;;;38.45;;
